sensor_id;sensor_type;location;lat;lon;timestamp;P1;durP1;ratioP1;P2;durP2;ratioP2
15677;SDS011;7939;50.814;6.368;2022-10-30T00:00:38;7.43;;;4.82;;
15677;SDS011;7939;50.814;6.368;2022-10-30T00:03:06;7.78;;;4.43;;
15677;SDS011;7939;50.814;6.368;2022-10-30T00:05:38;6.07;;;4.20;;
15677;SDS011;7939;50.814;6.368;2022-10-30T00:08:07;8.93;;;4.63;;
15677;SDS011;7939;50.814;6.368;2022-10-30T00:10:36;7.55;;;4.60;;
15677;SDS011;7939;50.814;6.368;2022-10-30T00:13:03;7.57;;;4.25;;
15677;SDS011;7939;50.814;6.368;2022-10-30T00:15:29;7.10;;;3.90;;
15677;SDS011;7939;50.814;6.368;2022-10-30T00:17:56;4.93;;;3.70;;
15677;SDS011;7939;50.814;6.368;2022-10-30T00:20:22;5.20;;;3.95;;
15677;SDS011;7939;50.814;6.368;2022-10-30T00:22:49;7.93;;;3.70;;
15677;SDS011;7939;50.814;6.368;2022-10-30T00:25:15;9.95;;;4.88;;
15677;SDS011;7939;50.814;6.368;2022-10-30T00:27:43;9.07;;;3.85;;
15677;SDS011;7939;50.814;6.368;2022-10-30T00:30:10;9.68;;;4.63;;
15677;SDS011;7939;50.814;6.368;2022-10-30T00:32:39;10.38;;;4.80;;
15677;SDS011;7939;50.814;6.368;2022-10-30T00:35:07;8.57;;;4.32;;
15677;SDS011;7939;50.814;6.368;2022-10-30T00:37:34;8.32;;;4.45;;
15677;SDS011;7939;50.814;6.368;2022-10-30T00:40:01;10.80;;;4.88;;
15677;SDS011;7939;50.814;6.368;2022-10-30T00:42:28;6.63;;;3.95;;
15677;SDS011;7939;50.814;6.368;2022-10-30T00:44:57;8.40;;;4.00;;
15677;SDS011;7939;50.814;6.368;2022-10-30T00:47:25;5.82;;;4.07;;
15677;SDS011;7939;50.814;6.368;2022-10-30T00:49:56;6.28;;;3.92;;
15677;SDS011;7939;50.814;6.368;2022-10-30T00:52:27;4.00;;;3.60;;
15677;SDS011;7939;50.814;6.368;2022-10-30T00:54:57;7.97;;;3.22;;
15677;SDS011;7939;50.814;6.368;2022-10-30T00:57:28;6.65;;;3.58;;
15677;SDS011;7939;50.814;6.368;2022-10-30T00:59:55;5.65;;;3.83;;
15677;SDS011;7939;50.814;6.368;2022-10-30T01:02:23;10.00;;;3.55;;
15677;SDS011;7939;50.814;6.368;2022-10-30T01:04:50;6.32;;;3.58;;
15677;SDS011;7939;50.814;6.368;2022-10-30T01:07:19;7.95;;;3.78;;
15677;SDS011;7939;50.814;6.368;2022-10-30T01:09:45;5.55;;;3.67;;
15677;SDS011;7939;50.814;6.368;2022-10-30T01:12:13;7.68;;;3.67;;
15677;SDS011;7939;50.814;6.368;2022-10-30T01:14:40;7.40;;;3.90;;
15677;SDS011;7939;50.814;6.368;2022-10-30T01:17:32;6.97;;;3.72;;
15677;SDS011;7939;50.814;6.368;2022-10-30T01:20:14;6.55;;;3.83;;
15677;SDS011;7939;50.814;6.368;2022-10-30T01:22:55;5.68;;;3.85;;
15677;SDS011;7939;50.814;6.368;2022-10-30T01:25:34;8.05;;;4.72;;
15677;SDS011;7939;50.814;6.368;2022-10-30T01:28:16;7.05;;;4.10;;
15677;SDS011;7939;50.814;6.368;2022-10-30T01:30:58;5.72;;;4.13;;
15677;SDS011;7939;50.814;6.368;2022-10-30T01:33:35;8.38;;;4.25;;
15677;SDS011;7939;50.814;6.368;2022-10-30T01:36:12;8.23;;;3.92;;
15677;SDS011;7939;50.814;6.368;2022-10-30T01:38:46;7.88;;;4.03;;
15677;SDS011;7939;50.814;6.368;2022-10-30T01:41:16;5.57;;;3.40;;
15677;SDS011;7939;50.814;6.368;2022-10-30T01:43:43;5.20;;;3.53;;
15677;SDS011;7939;50.814;6.368;2022-10-30T01:46:17;6.90;;;4.10;;
15677;SDS011;7939;50.814;6.368;2022-10-30T01:49:04;7.88;;;4.35;;
15677;SDS011;7939;50.814;6.368;2022-10-30T01:51:40;7.05;;;4.25;;
15677;SDS011;7939;50.814;6.368;2022-10-30T01:54:17;6.55;;;4.13;;
15677;SDS011;7939;50.814;6.368;2022-10-30T01:56:51;7.75;;;3.72;;
15677;SDS011;7939;50.814;6.368;2022-10-30T01:59:27;7.50;;;3.60;;
15677;SDS011;7939;50.814;6.368;2022-10-30T02:02:00;8.10;;;4.40;;
15677;SDS011;7939;50.814;6.368;2022-10-30T02:04:28;7.50;;;4.05;;
15677;SDS011;7939;50.814;6.368;2022-10-30T02:06:55;6.03;;;4.38;;
15677;SDS011;7939;50.814;6.368;2022-10-30T02:09:23;7.72;;;3.92;;
15677;SDS011;7939;50.814;6.368;2022-10-30T02:11:50;7.63;;;4.55;;
15677;SDS011;7939;50.814;6.368;2022-10-30T02:14:19;8.00;;;3.97;;
15677;SDS011;7939;50.814;6.368;2022-10-30T02:16:49;7.95;;;4.32;;
15677;SDS011;7939;50.814;6.368;2022-10-30T02:19:18;7.90;;;3.60;;
15677;SDS011;7939;50.814;6.368;2022-10-30T02:21:46;6.95;;;3.58;;
15677;SDS011;7939;50.814;6.368;2022-10-30T02:24:13;5.30;;;3.60;;
15677;SDS011;7939;50.814;6.368;2022-10-30T02:26:40;7.75;;;4.40;;
15677;SDS011;7939;50.814;6.368;2022-10-30T02:29:06;5.38;;;3.70;;
15677;SDS011;7939;50.814;6.368;2022-10-30T02:31:33;7.65;;;3.63;;
15677;SDS011;7939;50.814;6.368;2022-10-30T02:34:00;8.27;;;4.03;;
15677;SDS011;7939;50.814;6.368;2022-10-30T02:36:27;7.82;;;4.82;;
15677;SDS011;7939;50.814;6.368;2022-10-30T02:38:55;5.82;;;3.30;;
15677;SDS011;7939;50.814;6.368;2022-10-30T02:41:22;7.13;;;4.00;;
15677;SDS011;7939;50.814;6.368;2022-10-30T02:43:49;5.30;;;3.53;;
15677;SDS011;7939;50.814;6.368;2022-10-30T02:46:16;8.05;;;3.67;;
15677;SDS011;7939;50.814;6.368;2022-10-30T02:48:42;7.82;;;4.45;;
15677;SDS011;7939;50.814;6.368;2022-10-30T02:51:09;6.65;;;4.10;;
15677;SDS011;7939;50.814;6.368;2022-10-30T02:53:36;8.77;;;4.05;;
15677;SDS011;7939;50.814;6.368;2022-10-30T02:56:05;11.68;;;4.40;;
15677;SDS011;7939;50.814;6.368;2022-10-30T02:58:33;6.20;;;4.07;;
15677;SDS011;7939;50.814;6.368;2022-10-30T03:01:03;7.20;;;4.03;;
15677;SDS011;7939;50.814;6.368;2022-10-30T03:03:31;6.22;;;4.03;;
15677;SDS011;7939;50.814;6.368;2022-10-30T03:05:58;9.80;;;4.07;;
15677;SDS011;7939;50.814;6.368;2022-10-30T03:08:26;6.18;;;3.55;;
15677;SDS011;7939;50.814;6.368;2022-10-30T03:10:57;8.27;;;4.10;;
15677;SDS011;7939;50.814;6.368;2022-10-30T03:13:26;5.68;;;3.55;;
15677;SDS011;7939;50.814;6.368;2022-10-30T03:15:58;6.07;;;3.22;;
15677;SDS011;7939;50.814;6.368;2022-10-30T03:18:26;7.78;;;3.95;;
15677;SDS011;7939;50.814;6.368;2022-10-30T03:20:56;6.22;;;4.03;;
15677;SDS011;7939;50.814;6.368;2022-10-30T03:23:25;7.55;;;3.53;;
15677;SDS011;7939;50.814;6.368;2022-10-30T03:25:52;10.00;;;3.53;;
15677;SDS011;7939;50.814;6.368;2022-10-30T03:28:20;5.70;;;3.90;;
15677;SDS011;7939;50.814;6.368;2022-10-30T03:30:48;5.03;;;3.28;;
15677;SDS011;7939;50.814;6.368;2022-10-30T03:33:16;6.95;;;3.78;;
15677;SDS011;7939;50.814;6.368;2022-10-30T03:35:43;9.23;;;3.90;;
15677;SDS011;7939;50.814;6.368;2022-10-30T03:38:10;8.32;;;4.30;;
15677;SDS011;7939;50.814;6.368;2022-10-30T03:40:37;7.13;;;3.63;;
15677;SDS011;7939;50.814;6.368;2022-10-30T03:43:04;5.80;;;2.97;;
15677;SDS011;7939;50.814;6.368;2022-10-30T03:45:31;9.13;;;3.72;;
15677;SDS011;7939;50.814;6.368;2022-10-30T03:48:00;6.15;;;3.75;;
15677;SDS011;7939;50.814;6.368;2022-10-30T03:50:26;7.00;;;3.58;;
15677;SDS011;7939;50.814;6.368;2022-10-30T03:52:54;5.82;;;3.20;;
15677;SDS011;7939;50.814;6.368;2022-10-30T03:55:20;9.63;;;3.80;;
15677;SDS011;7939;50.814;6.368;2022-10-30T03:57:47;10.02;;;3.78;;
15677;SDS011;7939;50.814;6.368;2022-10-30T04:00:15;7.95;;;3.40;;
15677;SDS011;7939;50.814;6.368;2022-10-30T04:02:45;6.88;;;3.70;;
15677;SDS011;7939;50.814;6.368;2022-10-30T04:05:14;5.28;;;3.17;;
15677;SDS011;7939;50.814;6.368;2022-10-30T04:07:42;7.65;;;3.60;;
15677;SDS011;7939;50.814;6.368;2022-10-30T04:10:09;7.15;;;3.45;;
15677;SDS011;7939;50.814;6.368;2022-10-30T04:12:36;7.97;;;3.35;;
15677;SDS011;7939;50.814;6.368;2022-10-30T04:15:04;7.45;;;4.38;;
15677;SDS011;7939;50.814;6.368;2022-10-30T04:17:32;5.72;;;3.55;;
15677;SDS011;7939;50.814;6.368;2022-10-30T04:19:59;7.28;;;3.65;;
15677;SDS011;7939;50.814;6.368;2022-10-30T04:22:26;9.95;;;3.33;;
15677;SDS011;7939;50.814;6.368;2022-10-30T04:24:53;5.57;;;3.67;;
15677;SDS011;7939;50.814;6.368;2022-10-30T04:27:19;7.32;;;3.80;;
15677;SDS011;7939;50.814;6.368;2022-10-30T04:29:46;7.80;;;3.67;;
15677;SDS011;7939;50.814;6.368;2022-10-30T04:32:13;7.00;;;3.80;;
15677;SDS011;7939;50.814;6.368;2022-10-30T04:34:39;9.13;;;3.97;;
15677;SDS011;7939;50.814;6.368;2022-10-30T04:37:06;5.57;;;3.33;;
15677;SDS011;7939;50.814;6.368;2022-10-30T04:39:35;6.55;;;4.15;;
15677;SDS011;7939;50.814;6.368;2022-10-30T04:42:02;6.97;;;4.40;;
15677;SDS011;7939;50.814;6.368;2022-10-30T04:44:29;6.82;;;3.83;;
15677;SDS011;7939;50.814;6.368;2022-10-30T04:46:55;6.15;;;3.90;;
15677;SDS011;7939;50.814;6.368;2022-10-30T04:49:22;7.72;;;4.63;;
15677;SDS011;7939;50.814;6.368;2022-10-30T04:51:48;7.43;;;3.90;;
15677;SDS011;7939;50.814;6.368;2022-10-30T04:54:15;6.72;;;3.78;;
15677;SDS011;7939;50.814;6.368;2022-10-30T04:56:42;10.38;;;4.03;;
15677;SDS011;7939;50.814;6.368;2022-10-30T04:59:09;10.57;;;4.65;;
15677;SDS011;7939;50.814;6.368;2022-10-30T05:01:35;6.43;;;3.90;;
15677;SDS011;7939;50.814;6.368;2022-10-30T05:04:02;6.03;;;3.97;;
15677;SDS011;7939;50.814;6.368;2022-10-30T05:06:29;7.97;;;3.83;;
15677;SDS011;7939;50.814;6.368;2022-10-30T05:08:56;8.82;;;4.45;;
15677;SDS011;7939;50.814;6.368;2022-10-30T05:11:23;7.88;;;4.05;;
15677;SDS011;7939;50.814;6.368;2022-10-30T05:13:51;9.40;;;4.28;;
15677;SDS011;7939;50.814;6.368;2022-10-30T05:16:17;6.25;;;3.88;;
15677;SDS011;7939;50.814;6.368;2022-10-30T05:18:44;8.60;;;4.10;;
15677;SDS011;7939;50.814;6.368;2022-10-30T05:21:10;8.35;;;4.18;;
15677;SDS011;7939;50.814;6.368;2022-10-30T05:23:37;9.65;;;3.63;;
15677;SDS011;7939;50.814;6.368;2022-10-30T05:26:04;5.97;;;3.88;;
15677;SDS011;7939;50.814;6.368;2022-10-30T05:28:31;5.53;;;3.78;;
15677;SDS011;7939;50.814;6.368;2022-10-30T05:30:59;9.27;;;4.57;;
15677;SDS011;7939;50.814;6.368;2022-10-30T05:33:25;8.43;;;4.45;;
15677;SDS011;7939;50.814;6.368;2022-10-30T05:35:52;6.50;;;4.63;;
15677;SDS011;7939;50.814;6.368;2022-10-30T05:38:18;10.73;;;5.13;;
15677;SDS011;7939;50.814;6.368;2022-10-30T05:40:45;8.95;;;5.05;;
15677;SDS011;7939;50.814;6.368;2022-10-30T05:43:11;8.13;;;5.65;;
15677;SDS011;7939;50.814;6.368;2022-10-30T05:45:38;7.40;;;4.97;;
15677;SDS011;7939;50.814;6.368;2022-10-30T05:48:06;9.13;;;5.18;;
15677;SDS011;7939;50.814;6.368;2022-10-30T05:50:32;8.80;;;4.30;;
15677;SDS011;7939;50.814;6.368;2022-10-30T05:53:00;7.28;;;4.45;;
15677;SDS011;7939;50.814;6.368;2022-10-30T05:55:27;8.48;;;5.50;;
15677;SDS011;7939;50.814;6.368;2022-10-30T05:57:54;8.77;;;5.15;;
15677;SDS011;7939;50.814;6.368;2022-10-30T06:00:22;7.65;;;4.82;;
15677;SDS011;7939;50.814;6.368;2022-10-30T06:02:49;6.88;;;4.88;;
15677;SDS011;7939;50.814;6.368;2022-10-30T06:05:17;8.77;;;4.90;;
15677;SDS011;7939;50.814;6.368;2022-10-30T06:07:43;9.30;;;4.30;;
15677;SDS011;7939;50.814;6.368;2022-10-30T06:10:10;13.05;;;5.90;;
15677;SDS011;7939;50.814;6.368;2022-10-30T06:12:36;6.22;;;4.43;;
15677;SDS011;7939;50.814;6.368;2022-10-30T06:15:03;6.32;;;4.43;;
15677;SDS011;7939;50.814;6.368;2022-10-30T06:17:30;7.43;;;4.20;;
15677;SDS011;7939;50.814;6.368;2022-10-30T06:19:56;8.55;;;4.00;;
15677;SDS011;7939;50.814;6.368;2022-10-30T06:22:24;6.78;;;4.47;;
15677;SDS011;7939;50.814;6.368;2022-10-30T06:24:51;7.75;;;4.25;;
15677;SDS011;7939;50.814;6.368;2022-10-30T06:27:17;8.25;;;4.85;;
15677;SDS011;7939;50.814;6.368;2022-10-30T06:29:44;5.68;;;4.38;;
15677;SDS011;7939;50.814;6.368;2022-10-30T06:32:10;4.70;;;3.58;;
15677;SDS011;7939;50.814;6.368;2022-10-30T06:34:37;6.70;;;4.07;;
15677;SDS011;7939;50.814;6.368;2022-10-30T06:37:04;5.45;;;4.00;;
15677;SDS011;7939;50.814;6.368;2022-10-30T06:39:31;8.75;;;4.70;;
15677;SDS011;7939;50.814;6.368;2022-10-30T06:41:58;8.57;;;4.10;;
15677;SDS011;7939;50.814;6.368;2022-10-30T06:44:25;5.82;;;3.72;;
15677;SDS011;7939;50.814;6.368;2022-10-30T06:46:51;10.73;;;4.70;;
15677;SDS011;7939;50.814;6.368;2022-10-30T06:49:18;6.00;;;4.10;;
15677;SDS011;7939;50.814;6.368;2022-10-30T06:51:45;5.45;;;4.22;;
15677;SDS011;7939;50.814;6.368;2022-10-30T06:54:12;6.35;;;3.95;;
15677;SDS011;7939;50.814;6.368;2022-10-30T06:56:40;8.30;;;3.90;;
15677;SDS011;7939;50.814;6.368;2022-10-30T06:59:08;8.98;;;4.43;;
15677;SDS011;7939;50.814;6.368;2022-10-30T07:01:35;9.73;;;4.50;;
15677;SDS011;7939;50.814;6.368;2022-10-30T07:04:02;8.45;;;4.28;;
15677;SDS011;7939;50.814;6.368;2022-10-30T07:06:29;5.35;;;4.38;;
15677;SDS011;7939;50.814;6.368;2022-10-30T07:08:55;9.35;;;5.05;;
15677;SDS011;7939;50.814;6.368;2022-10-30T07:11:23;8.52;;;4.05;;
15677;SDS011;7939;50.814;6.368;2022-10-30T07:13:51;7.40;;;3.78;;
15677;SDS011;7939;50.814;6.368;2022-10-30T07:16:17;7.00;;;3.95;;
15677;SDS011;7939;50.814;6.368;2022-10-30T07:18:44;7.95;;;4.25;;
15677;SDS011;7939;50.814;6.368;2022-10-30T07:21:11;11.23;;;4.50;;
15677;SDS011;7939;50.814;6.368;2022-10-30T07:23:37;5.60;;;3.95;;
15677;SDS011;7939;50.814;6.368;2022-10-30T07:26:04;8.13;;;4.38;;
15677;SDS011;7939;50.814;6.368;2022-10-30T07:28:31;12.00;;;5.30;;
15677;SDS011;7939;50.814;6.368;2022-10-30T07:30:59;7.32;;;4.70;;
15677;SDS011;7939;50.814;6.368;2022-10-30T07:33:26;6.47;;;4.07;;
15677;SDS011;7939;50.814;6.368;2022-10-30T07:35:53;8.93;;;3.90;;
15677;SDS011;7939;50.814;6.368;2022-10-30T07:38:20;6.53;;;4.60;;
15677;SDS011;7939;50.814;6.368;2022-10-30T07:40:50;10.00;;;5.10;;
15677;SDS011;7939;50.814;6.368;2022-10-30T07:43:18;8.55;;;4.55;;
15677;SDS011;7939;50.814;6.368;2022-10-30T07:45:45;9.27;;;4.47;;
15677;SDS011;7939;50.814;6.368;2022-10-30T07:48:13;8.77;;;4.30;;
15677;SDS011;7939;50.814;6.368;2022-10-30T07:50:40;7.10;;;4.78;;
15677;SDS011;7939;50.814;6.368;2022-10-30T07:53:07;10.00;;;4.40;;
15677;SDS011;7939;50.814;6.368;2022-10-30T07:55:34;7.07;;;4.30;;
15677;SDS011;7939;50.814;6.368;2022-10-30T07:58:00;5.50;;;3.63;;
15677;SDS011;7939;50.814;6.368;2022-10-30T08:00:27;6.50;;;4.05;;
15677;SDS011;7939;50.814;6.368;2022-10-30T08:02:55;7.75;;;4.13;;
15677;SDS011;7939;50.814;6.368;2022-10-30T08:05:23;6.13;;;4.13;;
15677;SDS011;7939;50.814;6.368;2022-10-30T08:07:50;5.60;;;4.00;;
15677;SDS011;7939;50.814;6.368;2022-10-30T08:10:16;8.32;;;3.78;;
15677;SDS011;7939;50.814;6.368;2022-10-30T08:12:43;7.30;;;4.15;;
15677;SDS011;7939;50.814;6.368;2022-10-30T08:15:12;8.48;;;3.92;;
15677;SDS011;7939;50.814;6.368;2022-10-30T08:17:42;5.97;;;4.05;;
15677;SDS011;7939;50.814;6.368;2022-10-30T08:20:10;5.18;;;3.92;;
15677;SDS011;7939;50.814;6.368;2022-10-30T08:22:46;5.30;;;4.05;;
15677;SDS011;7939;50.814;6.368;2022-10-30T08:25:14;7.40;;;4.82;;
15677;SDS011;7939;50.814;6.368;2022-10-30T08:27:52;7.38;;;4.03;;
15677;SDS011;7939;50.814;6.368;2022-10-30T08:30:20;6.97;;;3.95;;
15677;SDS011;7939;50.814;6.368;2022-10-30T08:32:47;9.80;;;4.40;;
15677;SDS011;7939;50.814;6.368;2022-10-30T08:35:14;6.90;;;4.70;;
15677;SDS011;7939;50.814;6.368;2022-10-30T08:37:41;8.27;;;4.43;;
15677;SDS011;7939;50.814;6.368;2022-10-30T08:40:10;5.13;;;3.92;;
15677;SDS011;7939;50.814;6.368;2022-10-30T08:42:37;8.25;;;4.18;;
15677;SDS011;7939;50.814;6.368;2022-10-30T08:45:04;7.05;;;4.22;;
15677;SDS011;7939;50.814;6.368;2022-10-30T08:47:31;8.10;;;4.80;;
15677;SDS011;7939;50.814;6.368;2022-10-30T08:49:58;7.72;;;6.20;;
15677;SDS011;7939;50.814;6.368;2022-10-30T08:52:25;10.90;;;5.65;;
15677;SDS011;7939;50.814;6.368;2022-10-30T08:54:51;9.60;;;5.10;;
15677;SDS011;7939;50.814;6.368;2022-10-30T08:57:19;11.10;;;6.30;;
15677;SDS011;7939;50.814;6.368;2022-10-30T08:59:46;10.73;;;5.15;;
15677;SDS011;7939;50.814;6.368;2022-10-30T09:02:13;11.43;;;4.10;;
15677;SDS011;7939;50.814;6.368;2022-10-30T09:04:40;10.30;;;4.95;;
15677;SDS011;7939;50.814;6.368;2022-10-30T09:07:06;10.25;;;4.38;;
15677;SDS011;7939;50.814;6.368;2022-10-30T09:09:33;12.65;;;5.03;;
15677;SDS011;7939;50.814;6.368;2022-10-30T09:12:00;8.50;;;4.60;;
15677;SDS011;7939;50.814;6.368;2022-10-30T09:14:28;13.18;;;4.53;;
15677;SDS011;7939;50.814;6.368;2022-10-30T09:16:55;9.10;;;4.28;;
15677;SDS011;7939;50.814;6.368;2022-10-30T09:19:22;15.65;;;5.38;;
15677;SDS011;7939;50.814;6.368;2022-10-30T09:21:49;13.45;;;5.38;;
15677;SDS011;7939;50.814;6.368;2022-10-30T09:24:15;7.20;;;4.45;;
15677;SDS011;7939;50.814;6.368;2022-10-30T09:26:42;10.80;;;5.28;;
15677;SDS011;7939;50.814;6.368;2022-10-30T09:29:09;8.57;;;4.85;;
15677;SDS011;7939;50.814;6.368;2022-10-30T09:31:37;11.57;;;4.53;;
15677;SDS011;7939;50.814;6.368;2022-10-30T09:34:04;13.32;;;4.63;;
15677;SDS011;7939;50.814;6.368;2022-10-30T09:36:31;9.13;;;4.82;;
15677;SDS011;7939;50.814;6.368;2022-10-30T09:38:58;9.55;;;4.72;;
15677;SDS011;7939;50.814;6.368;2022-10-30T09:41:32;7.43;;;4.68;;
15677;SDS011;7939;50.814;6.368;2022-10-30T09:44:14;11.18;;;5.03;;
15677;SDS011;7939;50.814;6.368;2022-10-30T09:46:58;11.95;;;4.53;;
15677;SDS011;7939;50.814;6.368;2022-10-30T09:49:43;12.32;;;5.38;;
15677;SDS011;7939;50.814;6.368;2022-10-30T09:52:20;10.38;;;4.88;;
15677;SDS011;7939;50.814;6.368;2022-10-30T09:55:12;8.18;;;4.53;;
15677;SDS011;7939;50.814;6.368;2022-10-30T09:57:55;12.07;;;5.10;;
15677;SDS011;7939;50.814;6.368;2022-10-30T10:00:28;6.07;;;4.03;;
15677;SDS011;7939;50.814;6.368;2022-10-30T10:03:07;7.63;;;4.47;;
15677;SDS011;7939;50.814;6.368;2022-10-30T10:05:47;9.02;;;3.85;;
15677;SDS011;7939;50.814;6.368;2022-10-30T10:08:18;10.13;;;4.35;;
15677;SDS011;7939;50.814;6.368;2022-10-30T10:10:50;10.35;;;4.63;;
15677;SDS011;7939;50.814;6.368;2022-10-30T10:13:23;13.20;;;5.00;;
15677;SDS011;7939;50.814;6.368;2022-10-30T10:15:58;11.50;;;5.15;;
15677;SDS011;7939;50.814;6.368;2022-10-30T10:18:32;7.55;;;3.90;;
15677;SDS011;7939;50.814;6.368;2022-10-30T10:21:05;9.38;;;4.15;;
15677;SDS011;7939;50.814;6.368;2022-10-30T10:23:40;7.50;;;3.83;;
15677;SDS011;7939;50.814;6.368;2022-10-30T10:26:15;9.10;;;4.03;;
15677;SDS011;7939;50.814;6.368;2022-10-30T10:28:56;5.43;;;4.22;;
15677;SDS011;7939;50.814;6.368;2022-10-30T10:31:42;8.20;;;3.45;;
15677;SDS011;7939;50.814;6.368;2022-10-30T10:34:20;10.73;;;4.32;;
15677;SDS011;7939;50.814;6.368;2022-10-30T10:36:57;10.27;;;4.32;;
15677;SDS011;7939;50.814;6.368;2022-10-30T10:39:37;7.65;;;4.15;;
15677;SDS011;7939;50.814;6.368;2022-10-30T10:42:21;8.95;;;3.95;;
15677;SDS011;7939;50.814;6.368;2022-10-30T10:45:00;9.60;;;3.63;;
15677;SDS011;7939;50.814;6.368;2022-10-30T10:47:50;8.65;;;3.60;;
15677;SDS011;7939;50.814;6.368;2022-10-30T10:50:32;9.73;;;4.07;;
15677;SDS011;7939;50.814;6.368;2022-10-30T10:53:04;9.18;;;4.15;;
15677;SDS011;7939;50.814;6.368;2022-10-30T10:55:36;8.98;;;3.95;;
15677;SDS011;7939;50.814;6.368;2022-10-30T10:58:06;7.95;;;3.90;;
15677;SDS011;7939;50.814;6.368;2022-10-30T11:00:38;11.10;;;4.80;;
15677;SDS011;7939;50.814;6.368;2022-10-30T11:03:08;9.45;;;3.85;;
15677;SDS011;7939;50.814;6.368;2022-10-30T11:05:40;9.30;;;3.72;;
15677;SDS011;7939;50.814;6.368;2022-10-30T11:08:12;6.45;;;3.55;;
15677;SDS011;7939;50.814;6.368;2022-10-30T11:10:43;10.88;;;4.22;;
15677;SDS011;7939;50.814;6.368;2022-10-30T11:13:12;10.73;;;4.05;;
15677;SDS011;7939;50.814;6.368;2022-10-30T11:15:41;8.80;;;3.97;;
15677;SDS011;7939;50.814;6.368;2022-10-30T11:18:20;12.48;;;4.07;;
15677;SDS011;7939;50.814;6.368;2022-10-30T11:20:50;10.13;;;4.07;;
15677;SDS011;7939;50.814;6.368;2022-10-30T11:23:29;9.77;;;3.42;;
15677;SDS011;7939;50.814;6.368;2022-10-30T11:28:39;8.82;;;3.70;;
15677;SDS011;7939;50.814;6.368;2022-10-30T11:31:21;8.48;;;4.03;;
15677;SDS011;7939;50.814;6.368;2022-10-30T11:33:51;12.20;;;4.32;;
15677;SDS011;7939;50.814;6.368;2022-10-30T11:36:22;9.82;;;3.78;;
15677;SDS011;7939;50.814;6.368;2022-10-30T11:38:50;11.55;;;4.90;;
15677;SDS011;7939;50.814;6.368;2022-10-30T11:41:17;10.95;;;3.88;;
15677;SDS011;7939;50.814;6.368;2022-10-30T11:43:45;9.30;;;4.25;;
15677;SDS011;7939;50.814;6.368;2022-10-30T11:46:18;7.13;;;3.42;;
15677;SDS011;7939;50.814;6.368;2022-10-30T11:48:47;7.53;;;3.60;;
15677;SDS011;7939;50.814;6.368;2022-10-30T11:51:29;7.65;;;3.80;;
15677;SDS011;7939;50.814;6.368;2022-10-30T11:53:59;9.90;;;4.00;;
15677;SDS011;7939;50.814;6.368;2022-10-30T11:56:26;7.95;;;3.65;;
15677;SDS011;7939;50.814;6.368;2022-10-30T11:58:54;7.88;;;3.88;;
15677;SDS011;7939;50.814;6.368;2022-10-30T12:01:23;7.30;;;4.55;;
15677;SDS011;7939;50.814;6.368;2022-10-30T12:03:52;7.75;;;3.67;;
15677;SDS011;7939;50.814;6.368;2022-10-30T12:06:23;10.90;;;4.03;;
15677;SDS011;7939;50.814;6.368;2022-10-30T12:09:02;5.00;;;3.00;;
15677;SDS011;7939;50.814;6.368;2022-10-30T12:11:30;5.82;;;3.25;;
15677;SDS011;7939;50.814;6.368;2022-10-30T12:13:59;11.13;;;4.13;;
15677;SDS011;7939;50.814;6.368;2022-10-30T12:16:27;9.90;;;3.30;;
15677;SDS011;7939;50.814;6.368;2022-10-30T12:18:57;4.38;;;3.15;;
15677;SDS011;7939;50.814;6.368;2022-10-30T12:21:27;5.65;;;2.88;;
15677;SDS011;7939;50.814;6.368;2022-10-30T12:23:56;5.55;;;2.47;;
15677;SDS011;7939;50.814;6.368;2022-10-30T12:26:32;5.88;;;2.67;;
15677;SDS011;7939;50.814;6.368;2022-10-30T12:29:00;9.20;;;3.47;;
15677;SDS011;7939;50.814;6.368;2022-10-30T12:31:36;6.50;;;2.70;;
15677;SDS011;7939;50.814;6.368;2022-10-30T12:34:11;8.07;;;3.28;;
15677;SDS011;7939;50.814;6.368;2022-10-30T12:36:49;5.65;;;2.78;;
15677;SDS011;7939;50.814;6.368;2022-10-30T12:39:22;8.77;;;2.83;;
15677;SDS011;7939;50.814;6.368;2022-10-30T12:41:55;7.03;;;2.65;;
15677;SDS011;7939;50.814;6.368;2022-10-30T12:44:26;7.50;;;3.53;;
15677;SDS011;7939;50.814;6.368;2022-10-30T12:46:59;7.47;;;3.08;;
15677;SDS011;7939;50.814;6.368;2022-10-30T12:49:33;5.15;;;3.13;;
15677;SDS011;7939;50.814;6.368;2022-10-30T12:52:06;9.15;;;3.58;;
15677;SDS011;7939;50.814;6.368;2022-10-30T12:54:38;4.82;;;2.55;;
15677;SDS011;7939;50.814;6.368;2022-10-30T12:57:13;5.95;;;2.92;;
15677;SDS011;7939;50.814;6.368;2022-10-30T12:59:45;5.40;;;2.88;;
15677;SDS011;7939;50.814;6.368;2022-10-30T13:02:24;7.13;;;3.00;;
15677;SDS011;7939;50.814;6.368;2022-10-30T13:04:58;8.23;;;2.88;;
15677;SDS011;7939;50.814;6.368;2022-10-30T13:07:30;7.90;;;3.30;;
15677;SDS011;7939;50.814;6.368;2022-10-30T13:10:11;7.95;;;3.20;;
15677;SDS011;7939;50.814;6.368;2022-10-30T13:12:50;5.15;;;2.55;;
15677;SDS011;7939;50.814;6.368;2022-10-30T13:15:24;9.10;;;2.97;;
15677;SDS011;7939;50.814;6.368;2022-10-30T13:17:54;5.80;;;2.80;;
15677;SDS011;7939;50.814;6.368;2022-10-30T13:20:23;4.03;;;2.40;;
15677;SDS011;7939;50.814;6.368;2022-10-30T13:22:54;5.55;;;2.78;;
15677;SDS011;7939;50.814;6.368;2022-10-30T13:25:30;9.15;;;3.70;;
15677;SDS011;7939;50.814;6.368;2022-10-30T13:28:04;5.55;;;3.15;;
15677;SDS011;7939;50.814;6.368;2022-10-30T13:30:38;6.53;;;3.25;;
15677;SDS011;7939;50.814;6.368;2022-10-30T13:33:10;7.70;;;2.95;;
15677;SDS011;7939;50.814;6.368;2022-10-30T13:35:41;5.25;;;2.78;;
15677;SDS011;7939;50.814;6.368;2022-10-30T13:38:21;6.97;;;2.92;;
15677;SDS011;7939;50.814;6.368;2022-10-30T13:40:59;13.43;;;7.13;;
15677;SDS011;7939;50.814;6.368;2022-10-30T13:43:34;12.27;;;5.43;;
15677;SDS011;7939;50.814;6.368;2022-10-30T13:46:12;8.48;;;3.40;;
15677;SDS011;7939;50.814;6.368;2022-10-30T13:51:39;5.10;;;2.83;;
15677;SDS011;7939;50.814;6.368;2022-10-30T13:54:18;7.47;;;3.28;;
15677;SDS011;7939;50.814;6.368;2022-10-30T13:56:48;7.70;;;3.08;;
15677;SDS011;7939;50.814;6.368;2022-10-30T13:59:25;4.95;;;2.92;;
15677;SDS011;7939;50.814;6.368;2022-10-30T14:02:04;5.20;;;2.75;;
15677;SDS011;7939;50.814;6.368;2022-10-30T14:04:40;9.15;;;3.22;;
15677;SDS011;7939;50.814;6.368;2022-10-30T14:07:19;5.57;;;2.60;;
15677;SDS011;7939;50.814;6.368;2022-10-30T14:09:54;7.10;;;2.38;;
15677;SDS011;7939;50.814;6.368;2022-10-30T14:12:43;5.32;;;2.30;;
15677;SDS011;7939;50.814;6.368;2022-10-30T14:15:30;3.47;;;2.53;;
15677;SDS011;7939;50.814;6.368;2022-10-30T14:20:55;9.57;;;3.13;;
15677;SDS011;7939;50.814;6.368;2022-10-30T14:23:24;4.80;;;2.80;;
15677;SDS011;7939;50.814;6.368;2022-10-30T14:26:12;6.00;;;2.90;;
15677;SDS011;7939;50.814;6.368;2022-10-30T14:28:40;7.10;;;2.97;;
15677;SDS011;7939;50.814;6.368;2022-10-30T14:31:10;4.88;;;2.40;;
15677;SDS011;7939;50.814;6.368;2022-10-30T14:33:41;3.75;;;2.10;;
15677;SDS011;7939;50.814;6.368;2022-10-30T14:36:14;5.80;;;2.22;;
15677;SDS011;7939;50.814;6.368;2022-10-30T14:38:51;4.93;;;2.03;;
15677;SDS011;7939;50.814;6.368;2022-10-30T14:41:21;6.32;;;2.47;;
15677;SDS011;7939;50.814;6.368;2022-10-30T14:43:58;4.85;;;3.40;;
15677;SDS011;7939;50.814;6.368;2022-10-30T14:46:41;4.90;;;2.00;;
15677;SDS011;7939;50.814;6.368;2022-10-30T14:49:17;6.72;;;2.30;;
15677;SDS011;7939;50.814;6.368;2022-10-30T14:51:57;4.28;;;2.60;;
15677;SDS011;7939;50.814;6.368;2022-10-30T14:54:37;3.58;;;2.42;;
15677;SDS011;7939;50.814;6.368;2022-10-30T14:57:18;4.57;;;2.38;;
15677;SDS011;7939;50.814;6.368;2022-10-30T14:59:46;4.90;;;2.83;;
15677;SDS011;7939;50.814;6.368;2022-10-30T15:02:21;3.88;;;2.47;;
15677;SDS011;7939;50.814;6.368;2022-10-30T15:05:03;6.18;;;2.70;;
15677;SDS011;7939;50.814;6.368;2022-10-30T15:07:42;8.57;;;2.75;;
15677;SDS011;7939;50.814;6.368;2022-10-30T15:10:18;2.80;;;2.50;;
15677;SDS011;7939;50.814;6.368;2022-10-30T15:13:00;5.93;;;2.85;;
15677;SDS011;7939;50.814;6.368;2022-10-30T15:15:31;8.90;;;2.70;;
15677;SDS011;7939;50.814;6.368;2022-10-30T15:18:02;5.78;;;2.78;;
15677;SDS011;7939;50.814;6.368;2022-10-30T15:20:33;5.00;;;2.10;;
15677;SDS011;7939;50.814;6.368;2022-10-30T15:23:03;9.32;;;2.53;;
15677;SDS011;7939;50.814;6.368;2022-10-30T15:25:34;8.50;;;3.05;;
15677;SDS011;7939;50.814;6.368;2022-10-30T15:28:03;6.88;;;2.80;;